sensor_id;sensor_type;location;lat;lon;timestamp;pressure;altitude;pressure_sealevel;temperature;humidity
48848;BME280;36611;51.638;5.784;2023-02-08T00:00:04;103795.38;;;4.11;50.20
48848;BME280;36611;51.638;5.784;2023-02-08T00:02:32;103784.72;;;4.07;50.30
48848;BME280;36611;51.638;5.784;2023-02-08T00:04:59;103793.59;;;4.04;50.28
48848;BME280;36611;51.638;5.784;2023-02-08T00:07:25;103788.28;;;4.04;50.36
48848;BME280;36611;51.638;5.784;2023-02-08T00:09:52;103780.28;;;4.03;50.34
48848;BME280;36611;51.638;5.784;2023-02-08T00:12:19;103782.06;;;4.02;50.25
48848;BME280;36611;51.638;5.784;2023-02-08T00:14:45;103785.59;;;4.01;50.40
48848;BME280;36611;51.638;5.784;2023-02-08T00:17:12;103789.16;;;4.00;50.42
48848;BME280;36611;51.638;5.784;2023-02-08T00:19:38;103786.47;;;3.99;50.40
48848;BME280;36611;51.638;5.784;2023-02-08T00:22:05;103780.25;;;3.95;50.38
48848;BME280;36611;51.638;5.784;2023-02-08T00:24:31;103779.38;;;3.92;50.51
48848;BME280;36611;51.638;5.784;2023-02-08T00:27:00;103783.78;;;3.87;50.39
48848;BME280;36611;51.638;5.784;2023-02-08T00:29:26;103781.09;;;3.80;50.38
48848;BME280;36611;51.638;5.784;2023-02-08T00:31:53;103772.22;;;3.75;50.42
48848;BME280;36611;51.638;5.784;2023-02-08T00:34:19;103780.13;;;3.71;50.57
48848;BME280;36611;51.638;5.784;2023-02-08T00:36:46;103778.34;;;3.67;50.50
48848;BME280;36611;51.638;5.784;2023-02-08T00:39:13;103778.31;;;3.62;50.50
48848;BME280;36611;51.638;5.784;2023-02-08T00:41:39;103774.75;;;3.57;50.56
48848;BME280;36611;51.638;5.784;2023-02-08T00:44:06;103774.75;;;3.54;50.55
48848;BME280;36611;51.638;5.784;2023-02-08T00:46:33;103777.38;;;3.51;50.52
48848;BME280;36611;51.638;5.784;2023-02-08T00:49:00;103773.84;;;3.49;50.67
48848;BME280;36611;51.638;5.784;2023-02-08T00:51:27;103777.38;;;3.48;50.69
48848;BME280;36611;51.638;5.784;2023-02-08T00:53:53;103777.34;;;3.45;50.65
48848;BME280;36611;51.638;5.784;2023-02-08T00:56:20;103776.47;;;3.44;50.72
48848;BME280;36611;51.638;5.784;2023-02-08T00:58:46;103771.16;;;3.44;50.93
48848;BME280;36611;51.638;5.784;2023-02-08T01:01:13;103768.50;;;3.44;50.90
48848;BME280;36611;51.638;5.784;2023-02-08T01:03:41;103764.06;;;3.45;50.82
48848;BME280;36611;51.638;5.784;2023-02-08T01:06:10;103762.28;;;3.44;50.87
48848;BME280;36611;51.638;5.784;2023-02-08T01:08:38;103758.75;;;3.40;50.67
48848;BME280;36611;51.638;5.784;2023-02-08T01:13:36;103762.25;;;3.38;50.96
48848;BME280;36611;51.638;5.784;2023-02-08T01:16:10;103756.94;;;3.36;50.80
48848;BME280;36611;51.638;5.784;2023-02-08T01:18:38;103763.13;;;3.34;50.81
48848;BME280;36611;51.638;5.784;2023-02-08T01:21:08;103764.00;;;3.30;51.18
48848;BME280;36611;51.638;5.784;2023-02-08T01:23:35;103759.53;;;3.24;50.80
48848;BME280;36611;51.638;5.784;2023-02-08T01:26:03;103754.19;;;3.19;50.91
48848;BME280;36611;51.638;5.784;2023-02-08T01:28:30;103750.63;;;3.16;50.89
48848;BME280;36611;51.638;5.784;2023-02-08T01:30:56;103753.28;;;3.14;51.00
48848;BME280;36611;51.638;5.784;2023-02-08T01:33:23;103756.81;;;3.13;51.00
48848;BME280;36611;51.638;5.784;2023-02-08T01:35:51;103750.63;;;3.13;51.10
48848;BME280;36611;51.638;5.784;2023-02-08T01:38:19;103752.38;;;3.12;51.08
48848;BME280;36611;51.638;5.784;2023-02-08T01:40:46;103746.19;;;3.13;51.09
48848;BME280;36611;51.638;5.784;2023-02-08T01:43:32;103747.97;;;3.14;51.08
48848;BME280;36611;51.638;5.784;2023-02-08T01:45:59;103748.84;;;3.15;51.10
48848;BME280;36611;51.638;5.784;2023-02-08T01:48:35;103751.50;;;3.15;51.10
48848;BME280;36611;51.638;5.784;2023-02-08T01:53:33;103758.56;;;3.10;51.20
48848;BME280;36611;51.638;5.784;2023-02-08T01:56:06;103758.56;;;3.08;51.04
48848;BME280;36611;51.638;5.784;2023-02-08T01:58:35;103764.72;;;3.06;51.05
48848;BME280;36611;51.638;5.784;2023-02-08T02:01:03;103760.28;;;3.00;51.16
48848;BME280;36611;51.638;5.784;2023-02-08T02:03:30;103763.78;;;2.98;51.00
48848;BME280;36611;51.638;5.784;2023-02-08T02:06:03;103755.78;;;2.96;51.03
48848;BME280;36611;51.638;5.784;2023-02-08T02:08:31;103743.38;;;2.95;51.12
48848;BME280;36611;51.638;5.784;2023-02-08T02:10:58;103745.16;;;2.95;51.14
48848;BME280;36611;51.638;5.784;2023-02-08T02:13:26;103747.78;;;2.93;51.13
48848;BME280;36611;51.638;5.784;2023-02-08T02:15:53;103751.31;;;2.91;51.16
48848;BME280;36611;51.638;5.784;2023-02-08T02:18:26;103742.44;;;2.87;51.29
48848;BME280;36611;51.638;5.784;2023-02-08T02:21:12;103749.50;;;2.83;51.21
48848;BME280;36611;51.638;5.784;2023-02-08T02:23:55;103750.34;;;2.79;51.14
48848;BME280;36611;51.638;5.784;2023-02-08T02:39:44;103743.84;;;2.41;51.09
48848;BME280;36611;51.638;5.784;2023-02-08T02:42:28;103745.56;;;2.37;51.29
48848;BME280;36611;51.638;5.784;2023-02-08T02:48:05;103753.50;;;2.33;51.41
48848;BME280;36611;51.638;5.784;2023-02-08T02:50:48;103741.09;;;2.32;51.28
48848;BME280;36611;51.638;5.784;2023-02-08T02:56:12;103739.34;;;2.32;51.51
48848;BME280;36611;51.638;5.784;2023-02-08T02:58:41;103743.78;;;2.33;51.57
48848;BME280;36611;51.638;5.784;2023-02-08T03:01:08;103749.97;;;2.35;51.65
48848;BME280;36611;51.638;5.784;2023-02-08T03:03:35;103747.38;;;2.40;51.61
48848;BME280;36611;51.638;5.784;2023-02-08T03:11:55;103737.75;;;2.52;51.80
48848;BME280;36611;51.638;5.784;2023-02-08T03:14:27;103744.88;;;2.57;51.67
48848;BME280;36611;51.638;5.784;2023-02-08T03:20:10;103727.22;;;2.63;51.67
48848;BME280;36611;51.638;5.784;2023-02-08T03:23:01;103722.81;;;2.65;51.59
48848;BME280;36611;51.638;5.784;2023-02-08T03:25:39;103726.38;;;2.67;51.67
48848;BME280;36611;51.638;5.784;2023-02-08T03:28:17;103725.50;;;2.70;51.87
48848;BME280;36611;51.638;5.784;2023-02-08T03:30:48;103729.06;;;2.72;51.70
48848;BME280;36611;51.638;5.784;2023-02-08T03:33:24;103729.09;;;2.75;51.70
48848;BME280;36611;51.638;5.784;2023-02-08T03:36:04;103728.19;;;2.73;51.61
48848;BME280;36611;51.638;5.784;2023-02-08T03:38:40;103723.75;;;2.72;51.68
48848;BME280;36611;51.638;5.784;2023-02-08T03:41:11;103723.72;;;2.69;51.60
48848;BME280;36611;51.638;5.784;2023-02-08T03:43:43;103726.34;;;2.64;51.48
48848;BME280;36611;51.638;5.784;2023-02-08T03:46:16;103729.84;;;2.59;51.43
48848;BME280;36611;51.638;5.784;2023-02-08T03:48:47;103728.03;;;2.53;51.77
48848;BME280;36611;51.638;5.784;2023-02-08T03:51:17;103730.66;;;2.48;51.40
48848;BME280;36611;51.638;5.784;2023-02-08T03:53:47;103735.91;;;2.44;51.70
48848;BME280;36611;51.638;5.784;2023-02-08T03:56:21;103733.22;;;2.38;51.64
48848;BME280;36611;51.638;5.784;2023-02-08T03:58:59;103729.59;;;2.31;51.53
48848;BME280;36611;51.638;5.784;2023-02-08T04:01:33;103741.94;;;2.28;51.46
48848;BME280;36611;51.638;5.784;2023-02-08T04:04:02;103735.72;;;2.24;51.60
48848;BME280;36611;51.638;5.784;2023-02-08T04:06:28;103738.41;;;2.26;51.48
48848;BME280;36611;51.638;5.784;2023-02-08T04:08:55;103737.50;;;2.25;51.74
48848;BME280;36611;51.638;5.784;2023-02-08T04:11:22;103740.16;;;2.25;51.53
48848;BME280;36611;51.638;5.784;2023-02-08T04:13:49;103732.22;;;2.28;51.61
48848;BME280;36611;51.638;5.784;2023-02-08T04:16:15;103728.72;;;2.32;51.67
48848;BME280;36611;51.638;5.784;2023-02-08T04:18:42;103738.50;;;2.36;51.72
48848;BME280;36611;51.638;5.784;2023-02-08T04:21:09;103735.88;;;2.39;51.62
48848;BME280;36611;51.638;5.784;2023-02-08T04:23:35;103728.81;;;2.43;51.78
48848;BME280;36611;51.638;5.784;2023-02-08T04:26:02;103727.97;;;2.45;51.78
48848;BME280;36611;51.638;5.784;2023-02-08T04:28:29;103724.44;;;2.46;51.66
48848;BME280;36611;51.638;5.784;2023-02-08T04:30:56;103727.09;;;2.46;51.65
48848;BME280;36611;51.638;5.784;2023-02-08T04:33:23;103726.19;;;2.46;51.60
48848;BME280;36611;51.638;5.784;2023-02-08T04:35:49;103731.50;;;2.46;51.63
48848;BME280;36611;51.638;5.784;2023-02-08T04:38:16;103737.69;;;2.45;51.76
48848;BME280;36611;51.638;5.784;2023-02-08T04:40:42;103737.69;;;2.43;51.71
48848;BME280;36611;51.638;5.784;2023-02-08T04:43:09;103740.34;;;2.45;51.69
48848;BME280;36611;51.638;5.784;2023-02-08T04:45:36;103737.69;;;2.45;51.59
48848;BME280;36611;51.638;5.784;2023-02-08T04:48:03;103731.50;;;2.46;51.62
48848;BME280;36611;51.638;5.784;2023-02-08T04:50:33;103739.47;;;2.47;51.57
48848;BME280;36611;51.638;5.784;2023-02-08T04:53:00;103743.91;;;2.50;51.63
48848;BME280;36611;51.638;5.784;2023-02-08T04:55:27;103738.63;;;2.50;51.56
48848;BME280;36611;51.638;5.784;2023-02-08T04:57:53;103741.28;;;2.51;51.58
48848;BME280;36611;51.638;5.784;2023-02-08T05:00:20;103743.06;;;2.52;51.65
48848;BME280;36611;51.638;5.784;2023-02-08T05:02:46;103746.59;;;2.51;51.54
48848;BME280;36611;51.638;5.784;2023-02-08T05:05:13;103743.03;;;2.51;51.52
48848;BME280;36611;51.638;5.784;2023-02-08T05:07:39;103739.50;;;2.49;51.60
48848;BME280;36611;51.638;5.784;2023-02-08T05:10:06;103737.72;;;2.49;51.64
48848;BME280;36611;51.638;5.784;2023-02-08T05:12:33;103742.16;;;2.50;51.45
48848;BME280;36611;51.638;5.784;2023-02-08T05:15:00;103738.63;;;2.51;51.47
48848;BME280;36611;51.638;5.784;2023-02-08T05:17:26;103732.47;;;2.54;51.61
48848;BME280;36611;51.638;5.784;2023-02-08T05:19:53;103736.03;;;2.58;51.48
48848;BME280;36611;51.638;5.784;2023-02-08T05:22:19;103725.41;;;2.58;51.42
48848;BME280;36611;51.638;5.784;2023-02-08T05:24:46;103724.53;;;2.57;51.45
48848;BME280;36611;51.638;5.784;2023-02-08T05:27:12;103727.19;;;2.59;51.48
48848;BME280;36611;51.638;5.784;2023-02-08T05:29:39;103738.69;;;2.59;51.22
48848;BME280;36611;51.638;5.784;2023-02-08T05:32:06;103738.69;;;2.59;51.40
48848;BME280;36611;51.638;5.784;2023-02-08T05:34:32;103735.16;;;2.59;51.39
48848;BME280;36611;51.638;5.784;2023-02-08T05:36:59;103729.84;;;2.60;51.38
48848;BME280;36611;51.638;5.784;2023-02-08T05:39:26;103731.63;;;2.61;51.37
48848;BME280;36611;51.638;5.784;2023-02-08T05:41:54;103729.00;;;2.63;51.19
48848;BME280;36611;51.638;5.784;2023-02-08T05:44:20;103729.00;;;2.63;51.25
48848;BME280;36611;51.638;5.784;2023-02-08T05:46:47;103728.13;;;2.64;51.26
48848;BME280;36611;51.638;5.784;2023-02-08T05:49:14;103722.78;;;2.59;51.05
48848;BME280;36611;51.638;5.784;2023-02-08T05:51:40;103724.50;;;2.54;51.23
48848;BME280;36611;51.638;5.784;2023-02-08T05:54:07;103726.25;;;2.52;51.20
48848;BME280;36611;51.638;5.784;2023-02-08T05:56:34;103720.03;;;2.50;51.13
48848;BME280;36611;51.638;5.784;2023-02-08T05:59:01;103719.13;;;2.46;51.12
48848;BME280;36611;51.638;5.784;2023-02-08T06:01:28;103723.53;;;2.44;51.07
48848;BME280;36611;51.638;5.784;2023-02-08T06:03:54;103718.22;;;2.41;51.04
48848;BME280;36611;51.638;5.784;2023-02-08T06:06:21;103723.50;;;2.40;51.05
48848;BME280;36611;51.638;5.784;2023-02-08T06:08:48;103723.50;;;2.38;50.99
48848;BME280;36611;51.638;5.784;2023-02-08T06:11:14;103725.28;;;2.41;51.27
48848;BME280;36611;51.638;5.784;2023-02-08T06:13:42;103729.72;;;2.42;51.09
48848;BME280;36611;51.638;5.784;2023-02-08T06:16:08;103731.50;;;2.44;51.15
48848;BME280;36611;51.638;5.784;2023-02-08T06:18:35;103722.63;;;2.42;51.30
48848;BME280;36611;51.638;5.784;2023-02-08T06:21:02;103729.72;;;2.42;51.19
48848;BME280;36611;51.638;5.784;2023-02-08T06:23:29;103722.63;;;2.41;51.26
48848;BME280;36611;51.638;5.784;2023-02-08T06:25:56;103721.75;;;2.40;51.25
48848;BME280;36611;51.638;5.784;2023-02-08T06:28:22;103712.88;;;2.38;51.19
48848;BME280;36611;51.638;5.784;2023-02-08T06:30:49;103712.84;;;2.35;51.19
48848;BME280;36611;51.638;5.784;2023-02-08T06:33:17;103711.06;;;2.34;51.08
48848;BME280;36611;51.638;5.784;2023-02-08T06:35:50;103716.38;;;2.33;51.03
48848;BME280;36611;51.638;5.784;2023-02-08T06:38:17;103708.41;;;2.31;51.15
48848;BME280;36611;51.638;5.784;2023-02-08T06:40:48;103709.28;;;2.32;51.06
48848;BME280;36611;51.638;5.784;2023-02-08T06:43:15;103714.56;;;2.30;51.07
48848;BME280;36611;51.638;5.784;2023-02-08T06:45:46;103712.81;;;2.32;51.08
48848;BME280;36611;51.638;5.784;2023-02-08T06:48:13;103711.03;;;2.31;51.12
48848;BME280;36611;51.638;5.784;2023-02-08T06:50:40;103716.38;;;2.33;51.08
48848;BME280;36611;51.638;5.784;2023-02-08T06:53:07;103713.72;;;2.34;51.15
48848;BME280;36611;51.638;5.784;2023-02-08T06:55:34;103709.31;;;2.36;51.06
48848;BME280;36611;51.638;5.784;2023-02-08T06:58:00;103718.19;;;2.38;51.15
48848;BME280;36611;51.638;5.784;2023-02-08T07:00:27;103704.94;;;2.40;51.15
48848;BME280;36611;51.638;5.784;2023-02-08T07:02:54;103708.47;;;2.42;51.25
48848;BME280;36611;51.638;5.784;2023-02-08T07:05:20;103710.25;;;2.43;51.02
48848;BME280;36611;51.638;5.784;2023-02-08T07:07:47;103709.41;;;2.45;51.08
48848;BME280;36611;51.638;5.784;2023-02-08T07:10:14;103707.66;;;2.47;51.39
48848;BME280;36611;51.638;5.784;2023-02-08T07:12:51;103714.75;;;2.50;51.12
48848;BME280;36611;51.638;5.784;2023-02-08T07:15:17;103709.47;;;2.53;51.15
48848;BME280;36611;51.638;5.784;2023-02-08T07:17:44;103713.00;;;2.55;50.97
48848;BME280;36611;51.638;5.784;2023-02-08T07:20:11;103713.03;;;2.58;50.96
48848;BME280;36611;51.638;5.784;2023-02-08T07:22:38;103716.59;;;2.62;50.94
48848;BME280;36611;51.638;5.784;2023-02-08T07:25:06;103712.19;;;2.64;51.11
48848;BME280;36611;51.638;5.784;2023-02-08T07:27:33;103718.41;;;2.66;51.01
48848;BME280;36611;51.638;5.784;2023-02-08T07:30:00;103714.88;;;2.67;50.96
48848;BME280;36611;51.638;5.784;2023-02-08T07:32:26;103722.84;;;2.70;50.96
48848;BME280;36611;51.638;5.784;2023-02-08T07:34:53;103720.22;;;2.71;50.85
48848;BME280;36611;51.638;5.784;2023-02-08T07:37:19;103722.88;;;2.73;50.94
48848;BME280;36611;51.638;5.784;2023-02-08T07:39:46;103721.13;;;2.73;50.79
48848;BME280;36611;51.638;5.784;2023-02-08T07:42:14;103719.38;;;2.75;50.99
48848;BME280;36611;51.638;5.784;2023-02-08T07:44:52;103717.59;;;2.76;51.00
48848;BME280;36611;51.638;5.784;2023-02-08T07:47:19;103719.38;;;2.78;50.68
48848;BME280;36611;51.638;5.784;2023-02-08T07:49:45;103718.50;;;2.78;50.90
48848;BME280;36611;51.638;5.784;2023-02-08T07:52:12;103707.00;;;2.80;50.83
48848;BME280;36611;51.638;5.784;2023-02-08T07:54:38;103728.28;;;2.86;51.06
48848;BME280;36611;51.638;5.784;2023-02-08T07:57:05;103726.56;;;2.92;51.03
48848;BME280;36611;51.638;5.784;2023-02-08T07:59:32;103719.56;;;3.01;51.07
48848;BME280;36611;51.638;5.784;2023-02-08T08:01:58;103712.53;;;3.09;51.11
48848;BME280;36611;51.638;5.784;2023-02-08T08:04:25;103714.34;;;3.18;51.06
48848;BME280;36611;51.638;5.784;2023-02-08T08:06:51;103705.53;;;3.27;51.12
48848;BME280;36611;51.638;5.784;2023-02-08T08:09:20;103694.97;;;3.36;51.00
48848;BME280;36611;51.638;5.784;2023-02-08T08:11:46;103697.66;;;3.45;51.04
48848;BME280;36611;51.638;5.784;2023-02-08T08:14:13;103690.59;;;3.55;51.23
48848;BME280;36611;51.638;5.784;2023-02-08T08:16:40;103692.41;;;3.65;51.16
48848;BME280;36611;51.638;5.784;2023-02-08T08:19:08;103696.03;;;3.76;51.16
48848;BME280;36611;51.638;5.784;2023-02-08T08:21:34;103696.06;;;3.90;51.18
48848;BME280;36611;51.638;5.784;2023-02-08T08:24:01;103696.06;;;4.02;51.25
48848;BME280;36611;51.638;5.784;2023-02-08T08:26:28;103697.88;;;4.15;51.15
48848;BME280;36611;51.638;5.784;2023-02-08T08:28:55;103699.66;;;4.28;51.25
48848;BME280;36611;51.638;5.784;2023-02-08T08:31:21;103703.19;;;4.42;51.01
48848;BME280;36611;51.638;5.784;2023-02-08T08:33:48;103701.47;;;4.57;51.04
48848;BME280;36611;51.638;5.784;2023-02-08T08:36:15;103702.34;;;4.66;50.76
48848;BME280;36611;51.638;5.784;2023-02-08T08:38:42;103697.00;;;4.75;50.68
48848;BME280;36611;51.638;5.784;2023-02-08T08:41:09;103693.44;;;4.86;50.55
48848;BME280;36611;51.638;5.784;2023-02-08T08:43:36;103691.63;;;4.94;50.55
48848;BME280;36611;51.638;5.784;2023-02-08T08:46:06;103693.41;;;5.02;50.51
48848;BME280;36611;51.638;5.784;2023-02-08T08:48:34;103692.47;;;5.09;50.41
48848;BME280;36611;51.638;5.784;2023-02-08T08:51:01;103681.81;;;5.14;50.22
48848;BME280;36611;51.638;5.784;2023-02-08T08:53:28;103681.81;;;5.17;50.14
48848;BME280;36611;51.638;5.784;2023-02-08T08:55:54;103679.16;;;5.23;50.05
48848;BME280;36611;51.638;5.784;2023-02-08T08:58:21;103678.25;;;5.30;50.06
48848;BME280;36611;51.638;5.784;2023-02-08T09:00:48;103676.41;;;5.40;50.11
48848;BME280;36611;51.638;5.784;2023-02-08T09:03:15;103676.38;;;5.51;50.04
48848;BME280;36611;51.638;5.784;2023-02-08T09:05:42;103680.75;;;5.64;50.05
48848;BME280;36611;51.638;5.784;2023-02-08T09:08:09;103680.69;;;5.76;50.01
48848;BME280;36611;51.638;5.784;2023-02-08T09:10:35;103686.81;;;5.89;49.94
48848;BME280;36611;51.638;5.784;2023-02-08T09:13:02;103674.34;;;6.01;49.88
48848;BME280;36611;51.638;5.784;2023-02-08T09:15:29;103681.34;;;6.18;49.88
48848;BME280;36611;51.638;5.784;2023-02-08T09:17:55;103682.13;;;6.32;49.67
48848;BME280;36611;51.638;5.784;2023-02-08T09:20:22;103687.31;;;6.49;49.68
48848;BME280;36611;51.638;5.784;2023-02-08T09:22:49;103684.50;;;6.65;49.46
48848;BME280;36611;51.638;5.784;2023-02-08T09:25:16;103683.47;;;6.83;49.45
48848;BME280;36611;51.638;5.784;2023-02-08T09:27:43;103686.81;;;7.04;49.32
48848;BME280;36611;51.638;5.784;2023-02-08T09:30:10;103679.50;;;7.18;49.31
48848;BME280;36611;51.638;5.784;2023-02-08T09:32:36;103688.28;;;7.29;48.97
48848;BME280;36611;51.638;5.784;2023-02-08T09:35:06;103682.84;;;7.37;48.67
48848;BME280;36611;51.638;5.784;2023-02-08T09:37:33;103687.16;;;7.51;48.51
48848;BME280;36611;51.638;5.784;2023-02-08T09:40:00;103690.47;;;7.69;48.57
48848;BME280;36611;51.638;5.784;2023-02-08T09:48:08;103690.84;;;8.04;47.91
48848;BME280;36611;51.638;5.784;2023-02-08T09:50:45;103688.00;;;8.15;47.83
48848;BME280;36611;51.638;5.784;2023-02-08T09:53:15;103693.25;;;8.24;47.46
48848;BME280;36611;51.638;5.784;2023-02-08T09:55:46;103690.47;;;8.30;47.40
48848;BME280;36611;51.638;5.784;2023-02-08T09:58:28;103686.78;;;8.39;47.28
48848;BME280;36611;51.638;5.784;2023-02-08T10:00:56;103690.25;;;8.45;47.11
48848;BME280;36611;51.638;5.784;2023-02-08T10:03:35;103684.88;;;8.47;46.87
48848;BME280;36611;51.638;5.784;2023-02-08T10:06:05;103699.03;;;8.53;46.98
48848;BME280;36611;51.638;5.784;2023-02-08T10:08:33;103699.81;;;8.60;46.89
48848;BME280;36611;51.638;5.784;2023-02-08T10:33:21;103699.19;;;9.41;45.80
48848;BME280;36611;51.638;5.784;2023-02-08T10:35:52;103699.06;;;9.47;45.67
48848;BME280;36611;51.638;5.784;2023-02-08T10:40:53;103703.09;;;9.68;45.19
48848;BME280;36611;51.638;5.784;2023-02-08T10:46:15;103694.53;;;9.91;44.57
48848;BME280;36611;51.638;5.784;2023-02-08T10:51:19;103686.13;;;10.06;43.93
48848;BME280;36611;51.638;5.784;2023-02-08T10:53:49;103680.56;;;10.14;43.84
48848;BME280;36611;51.638;5.784;2023-02-08T10:56:59;103686.63;;;10.24;43.33
48848;BME280;36611;51.638;5.784;2023-02-08T10:59:46;103685.41;;;10.37;43.09
48848;BME280;36611;51.638;5.784;2023-02-08T11:02:23;103683.31;;;10.49;43.04
48848;BME280;36611;51.638;5.784;2023-02-08T11:07:25;103677.50;;;10.66;42.62
48848;BME280;36611;51.638;5.784;2023-02-08T11:09:51;103673.75;;;10.73;42.53
48848;BME280;36611;51.638;5.784;2023-02-08T11:12:20;103675.34;;;10.80;42.23
48848;BME280;36611;51.638;5.784;2023-02-08T11:14:50;103675.03;;;10.91;41.77
48848;BME280;36611;51.638;5.784;2023-02-08T11:17:29;103665.78;;;11.01;41.89
48848;BME280;36611;51.638;5.784;2023-02-08T11:19:57;103661.91;;;11.11;41.36
48848;BME280;36611;51.638;5.784;2023-02-08T11:22:26;103648.31;;;11.18;41.30
48848;BME280;36611;51.638;5.784;2023-02-08T11:25:02;103653.41;;;11.28;41.27
48848;BME280;36611;51.638;5.784;2023-02-08T11:27:35;103649.50;;;11.38;41.22
48848;BME280;36611;51.638;5.784;2023-02-08T11:30:18;103651.78;;;11.52;41.06
48848;BME280;36611;51.638;5.784;2023-02-08T11:32:47;103651.41;;;11.64;40.66
48848;BME280;36611;51.638;5.784;2023-02-08T11:35:25;103645.69;;;11.75;40.32
48848;BME280;36611;51.638;5.784;2023-02-08T11:37:54;103643.63;;;11.85;40.07
48848;BME280;36611;51.638;5.784;2023-02-08T11:40:24;103637.09;;;11.93;39.90
48848;BME280;36611;51.638;5.784;2023-02-08T11:42:52;103632.22;;;12.04;39.75
48848;BME280;36611;51.638;5.784;2023-02-08T11:45:29;103631.09;;;12.12;39.34
48848;BME280;36611;51.638;5.784;2023-02-08T11:47:57;103634.63;;;12.14;39.06
48848;BME280;36611;51.638;5.784;2023-02-08T11:50:33;103625.75;;;12.10;38.27
48848;BME280;36611;51.638;5.784;2023-02-08T11:53:01;103627.38;;;12.16;38.06
48848;BME280;36611;51.638;5.784;2023-02-08T11:55:31;103622.66;;;12.22;38.01
48848;BME280;36611;51.638;5.784;2023-02-08T12:00:39;103613.47;;;12.28;37.73
48848;BME280;36611;51.638;5.784;2023-02-08T12:05:55;103610.19;;;12.45;36.80
48848;BME280;36611;51.638;5.784;2023-02-08T12:08:46;103601.94;;;12.49;36.77
48848;BME280;36611;51.638;5.784;2023-02-08T12:16:48;103589.78;;;12.62;36.33
48848;BME280;36611;51.638;5.784;2023-02-08T12:19:24;103594.00;;;12.71;36.57
48848;BME280;36611;51.638;5.784;2023-02-08T12:22:06;103588.66;;;12.69;35.79
48848;BME280;36611;51.638;5.784;2023-02-08T12:38:22;103566.75;;;12.79;34.93
48848;BME280;36611;51.638;5.784;2023-02-08T12:41:22;103560.25;;;12.84;34.56
48848;BME280;36611;51.638;5.784;2023-02-08T12:48:10;103564.28;;;12.96;33.89
48848;BME280;36611;51.638;5.784;2023-02-08T12:51:10;103558.72;;;13.00;33.84
48848;BME280;36611;51.638;5.784;2023-02-08T12:53:49;103551.34;;;13.05;34.17
48848;BME280;36611;51.638;5.784;2023-02-08T12:56:24;103538.56;;;13.11;33.70
48848;BME280;36611;51.638;5.784;2023-02-08T12:58:55;103540.31;;;13.12;33.83
48848;BME280;36611;51.638;5.784;2023-02-08T13:01:47;103534.84;;;13.13;33.63
48848;BME280;36611;51.638;5.784;2023-02-08T13:04:26;103528.56;;;13.13;33.40
48848;BME280;36611;51.638;5.784;2023-02-08T13:06:58;103522.25;;;13.14;33.36
48848;BME280;36611;51.638;5.784;2023-02-08T13:14:37;103508.69;;;13.15;33.20
48848;BME280;36611;51.638;5.784;2023-02-08T13:17:21;103502.47;;;13.13;33.03
48848;BME280;36611;51.638;5.784;2023-02-08T13:20:15;103489.09;;;13.10;32.52
48848;BME280;36611;51.638;5.784;2023-02-08T13:22:45;103493.50;;;13.13;33.01
48848;BME280;36611;51.638;5.784;2023-02-08T13:25:29;103487.94;;;13.17;33.24
48848;BME280;36611;51.638;5.784;2023-02-08T13:28:01;103492.34;;;13.20;32.95
48848;BME280;36611;51.638;5.784;2023-02-08T13:30:30;103490.53;;;13.20;33.16
48848;BME280;36611;51.638;5.784;2023-02-08T13:33:00;103477.78;;;13.24;33.15
48848;BME280;36611;51.638;5.784;2023-02-08T13:35:30;103477.72;;;13.25;32.98
48848;BME280;36611;51.638;5.784;2023-02-08T13:38:05;103481.38;;;13.24;32.71
48848;BME280;36611;51.638;5.784;2023-02-08T13:40:34;103478.53;;;13.27;32.49
48848;BME280;36611;51.638;5.784;2023-02-08T13:43:07;103474.03;;;13.28;32.67
48848;BME280;36611;51.638;5.784;2023-02-08T13:45:57;103462.22;;;13.30;32.57
48848;BME280;36611;51.638;5.784;2023-02-08T13:48:25;103465.63;;;13.35;32.22
48848;BME280;36611;51.638;5.784;2023-02-08T13:50:53;103455.81;;;13.33;32.06
48848;BME280;36611;51.638;5.784;2023-02-08T13:56:42;103453.56;;;13.22;31.94
48848;BME280;36611;51.638;5.784;2023-02-08T14:04:45;103448.16;;;13.22;31.93
48848;BME280;36611;51.638;5.784;2023-02-08T14:10:04;103442.00;;;13.19;31.41
48848;BME280;36611;51.638;5.784;2023-02-08T14:12:40;103435.69;;;13.20;31.42
48848;BME280;36611;51.638;5.784;2023-02-08T14:17:43;103428.53;;;13.19;31.70
48848;BME280;36611;51.638;5.784;2023-02-08T14:20:19;103430.34;;;13.18;31.12
48848;BME280;36611;51.638;5.784;2023-02-08T14:22:51;103425.16;;;13.12;30.64
48848;BME280;36611;51.638;5.784;2023-02-08T14:25:21;103428.06;;;13.08;31.10
48848;BME280;36611;51.638;5.784;2023-02-08T14:27:56;103423.84;;;13.00;31.09
48848;BME280;36611;51.638;5.784;2023-02-08T14:30:31;103426.78;;;12.94;30.42
48848;BME280;36611;51.638;5.784;2023-02-08T14:35:41;103416.88;;;12.95;31.32
48848;BME280;36611;51.638;5.784;2023-02-08T14:40:56;103402.06;;;12.83;31.15
48848;BME280;36611;51.638;5.784;2023-02-08T14:43:33;103407.59;;;12.80;31.08
48848;BME280;36611;51.638;5.784;2023-02-08T14:49:14;103398.16;;;12.68;31.25
48848;BME280;36611;51.638;5.784;2023-02-08T14:52:19;103399.25;;;12.63;31.17
48848;BME280;36611;51.638;5.784;2023-02-08T14:54:53;103400.25;;;12.60;30.98
48848;BME280;36611;51.638;5.784;2023-02-08T14:59:58;103391.59;;;12.52;30.98
48848;BME280;36611;51.638;5.784;2023-02-08T15:02:26;103388.13;;;12.49;31.25
48848;BME280;36611;51.638;5.784;2023-02-08T15:04:57;103396.50;;;12.41;31.27
48848;BME280;36611;51.638;5.784;2023-02-08T15:10:08;103387.13;;;12.28;30.97
48848;BME280;36611;51.638;5.784;2023-02-08T15:12:38;103384.66;;;12.22;31.01
48848;BME280;36611;51.638;5.784;2023-02-08T15:15:25;103380.44;;;12.15;30.84
48848;BME280;36611;51.638;5.784;2023-02-08T15:17:54;103378.88;;;12.09;30.84
48848;BME280;36611;51.638;5.784;2023-02-08T15:20:23;103381.72;;;12.04;31.15
48848;BME280;36611;51.638;5.784;2023-02-08T15:23:02;103368.44;;;12.00;30.94
48848;BME280;36611;51.638;5.784;2023-02-08T15:25:37;103365.03;;;11.95;31.03